Metar z połowy godziny Komunikat METAR ze strony awiacja.imgw.pl Metar G00 EPZG METAR EPZG 160730Z 23018KT 9999 SCT026 BKN038 OVC049 07/04 Q0999 =